createdAt,value
2022-10-26T01:02:41.944Z,64.82
2022-10-26T01:05:09.023Z,64.54
2022-10-26T01:07:36.686Z,64.49
2022-10-26T01:10:03.686Z,64.32
2022-10-26T01:12:30.253Z,63.82
2022-10-26T01:19:12.237Z,63.79
2022-10-26T04:13:17.463Z,66.68
2022-10-26T04:36:36.356Z,67.45
2022-10-26T04:39:03.095Z,67.56
2022-10-26T04:41:29.641Z,67.34
2022-10-26T04:43:56.246Z,67.36
2022-10-26T04:48:58.035Z,67.40
2022-10-26T05:03:09.567Z,67.88
2022-10-26T05:05:37.681Z,68.48
2022-10-26T05:08:04.714Z,68.86
2022-10-26T05:10:31.547Z,68.84
2022-10-26T05:13:00.194Z,68.42
2022-10-26T05:15:29.772Z,69.69
2022-10-26T05:18:02.877Z,70.86
2022-10-26T05:23:07.555Z,69.53
2022-10-26T05:25:36.251Z,70.34
2022-10-26T05:28:09.615Z,70.01
2022-10-26T05:30:36.363Z,70.53
2022-10-26T05:33:03.439Z,70.00
2022-10-26T05:35:31.232Z,69.11
2022-10-26T05:37:58.354Z,68.69
2022-10-26T05:40:25.515Z,68.32
2022-10-26T05:42:55.090Z,68.25
2022-10-26T05:45:21.693Z,68.07
2022-10-26T05:47:48.603Z,67.84
2022-10-26T05:50:15.603Z,67.62
2022-10-26T05:52:46.866Z,67.14
2022-10-26T05:55:15.941Z,67.44
2022-10-26T05:57:43.602Z,67.49
2022-10-26T06:00:22.059Z,67.62
2022-10-26T06:02:51.676Z,68.25
2022-10-26T06:05:22.874Z,69.02
2022-10-26T06:07:50.258Z,69.07
2022-10-26T06:10:17.757Z,68.62
2022-10-26T06:12:44.618Z,69.27
2022-10-26T06:15:20.934Z,69.20
2022-10-26T06:18:13.419Z,68.74
2022-10-26T06:20:59.553Z,68.57
2022-10-26T06:23:50.567Z,69.29
2022-10-26T06:26:37.334Z,69.26
2022-10-26T06:29:28.435Z,70.07
2022-10-26T06:31:55.002Z,70.18
2022-10-26T07:02:45.544Z,70.03
2022-10-26T07:05:15.660Z,69.87
2022-10-26T07:07:47.366Z,70.74
2022-10-26T07:10:15.445Z,71.61
2022-10-26T07:12:41.981Z,72.43
2022-10-26T07:17:45.915Z,71.37
2022-10-26T08:28:03.241Z,69.50
2022-10-26T08:30:31.244Z,69.42
2022-10-26T08:33:02.541Z,68.90
2022-10-26T08:35:29.997Z,68.88
2022-10-26T10:06:20.248Z,72.29
2022-10-26T10:09:17.765Z,72.73
2022-10-26T10:11:57.759Z,73.89
2022-10-26T10:14:26.864Z,71.95
2022-10-26T10:16:57.995Z,71.00
2022-10-26T10:35:52.323Z,69.64
2022-10-26T10:38:40.170Z,69.29
2022-10-26T10:41:17.078Z,70.57
2022-10-26T10:43:49.681Z,70.04
2022-10-26T10:46:21.834Z,69.71
2022-10-26T10:48:53.031Z,69.27
2022-10-26T11:05:37.578Z,68.74
2022-10-26T11:08:13.537Z,68.25
2022-10-26T11:10:50.303Z,68.06
2022-10-26T11:13:31.459Z,68.80
2022-10-26T11:16:03.673Z,68.40
2022-10-26T11:18:52.725Z,68.31
2022-10-26T11:38:18.058Z,69.30
2022-10-26T11:41:05.663Z,68.49
2022-10-26T11:43:40.230Z,68.54
2022-10-26T11:46:33.219Z,69.60
2022-10-26T11:49:02.680Z,68.59
2022-10-26T12:35:33.424Z,64.29
2022-10-26T12:38:01.829Z,63.25
2022-10-26T12:40:32.943Z,63.84
2022-10-26T12:43:14.666Z,63.78
2022-10-26T12:45:43.363Z,63.10
2022-10-26T12:48:40.042Z,62.85
2022-10-26T13:36:22.943Z,61.14
2022-10-26T13:38:50.265Z,61.22
2022-10-26T13:41:40.300Z,61.31
2022-10-26T13:44:18.312Z,61.47
2022-10-26T13:46:46.715Z,61.40
2022-10-26T13:49:25.057Z,61.42
2022-10-26T14:05:28.569Z,61.87
2022-10-26T14:07:59.269Z,61.85
2022-10-26T14:10:33.011Z,62.17
2022-10-26T14:13:01.076Z,62.42
2022-10-26T14:15:31.390Z,62.35
2022-10-26T14:18:00.187Z,62.42
2022-10-26T14:20:28.807Z,62.61
2022-10-26T14:52:53.905Z,62.73
2022-10-26T14:55:21.561Z,62.72
2022-10-26T14:57:51.084Z,62.80
2022-10-26T15:00:20.867Z,62.75
2022-10-26T15:02:55.998Z,62.95
2022-10-26T15:05:35.742Z,63.09
2022-10-26T15:40:27.141Z,64.45
2022-10-26T15:42:55.087Z,64.79
2022-10-26T15:45:24.428Z,64.83
2022-10-26T15:47:56.761Z,65.11
2022-10-26T15:50:29.281Z,65.36
2022-10-26T16:13:41.615Z,65.90
2022-10-26T16:16:13.698Z,66.05
2022-10-26T16:18:40.507Z,66.28
2022-10-26T16:21:13.537Z,66.33
2022-10-26T16:47:28.893Z,66.83
2022-10-26T16:49:55.496Z,67.13
2022-10-26T16:52:22.045Z,66.94
2022-10-26T16:54:48.937Z,67.02
2022-10-26T16:57:15.543Z,67.04
2022-10-26T16:59:42.175Z,67.24
2022-10-26T17:02:10.525Z,67.18
2022-10-26T17:04:37.279Z,67.20
2022-10-26T17:07:03.823Z,67.15
2022-10-26T17:09:30.352Z,67.14
2022-10-26T17:12:01.662Z,67.37
2022-10-26T17:14:28.617Z,67.66
2022-10-26T17:16:55.200Z,67.90
2022-10-26T17:19:21.742Z,67.76
2022-10-26T17:21:48.605Z,67.83
2022-10-26T17:24:15.328Z,67.68
2022-10-26T17:26:42.292Z,67.47
2022-10-26T17:31:41.315Z,67.50
2022-10-26T17:34:08.004Z,67.45
2022-10-26T17:36:34.751Z,67.69
2022-10-26T17:39:01.412Z,67.61
2022-10-26T17:41:28.818Z,67.41
2022-10-26T17:43:55.402Z,67.64
2022-10-26T17:46:27.487Z,67.99
2022-10-26T17:48:58.917Z,67.81
2022-10-26T17:51:27.375Z,67.60
2022-10-26T17:53:54.592Z,67.42
2022-10-26T17:56:23.856Z,67.39
2022-10-26T17:58:59.018Z,67.56
2022-10-26T18:01:33.046Z,68.00
2022-10-26T18:04:00.450Z,67.95
2022-10-26T18:06:27.224Z,67.99
2022-10-26T18:08:53.792Z,68.12
2022-10-26T18:11:26.954Z,67.87
2022-10-26T18:13:57.559Z,67.71
2022-10-26T18:19:02.051Z,67.81
2022-10-26T18:21:31.162Z,67.81
2022-10-26T18:23:57.756Z,67.52
2022-10-26T18:26:48.147Z,67.58
2022-10-26T18:29:14.833Z,67.70
2022-10-26T18:31:41.473Z,67.53
2022-10-26T18:34:08.080Z,67.55
2022-10-26T18:36:35.098Z,67.47
2022-10-26T18:39:02.084Z,67.46
2022-10-26T18:41:29.098Z,67.31
2022-10-26T18:43:58.982Z,67.19
2022-10-26T18:46:31.254Z,67.35
2022-10-26T18:49:00.873Z,68.78
2022-10-26T18:51:34.550Z,69.39
2022-10-26T18:54:01.766Z,69.31
2022-10-26T18:56:28.603Z,68.77
2022-10-26T18:58:58.442Z,68.37
2022-10-26T19:01:33.914Z,67.98
2022-10-26T19:04:05.849Z,69.14
2022-10-26T19:06:35.092Z,70.21
2022-10-26T19:09:02.130Z,70.50
2022-10-26T19:11:31.658Z,71.42
2022-10-26T19:13:58.438Z,71.32
2022-10-26T19:16:44.561Z,71.26
2022-10-26T19:19:13.704Z,70.71
2022-10-26T19:21:40.285Z,70.90
2022-10-26T19:24:12.186Z,71.19
2022-10-26T19:26:42.385Z,71.06
2022-10-26T19:29:14.556Z,70.45
2022-10-26T19:31:41.876Z,70.16
2022-10-26T19:34:10.552Z,70.84
2022-10-26T19:36:37.101Z,71.33
2022-10-26T19:39:03.753Z,70.77
2022-10-26T19:41:31.414Z,70.69
2022-10-26T19:46:28.628Z,70.39
2022-10-26T19:49:02.047Z,70.26
2022-10-26T19:51:30.231Z,69.85
2022-10-26T19:54:03.114Z,69.70
2022-10-26T19:56:31.246Z,70.01
2022-10-26T19:58:58.020Z,70.13
2022-10-26T20:01:24.955Z,70.45
2022-10-26T20:03:51.636Z,70.81
2022-10-26T20:06:18.715Z,71.83
2022-10-26T20:08:48.357Z,72.05
2022-10-26T20:11:16.758Z,72.89
2022-10-26T20:13:45.466Z,73.20
2022-10-26T20:18:48.868Z,74.26
2022-10-26T20:21:17.105Z,73.74
2022-10-26T20:23:44.514Z,72.81
2022-10-26T20:26:18.763Z,72.30
2022-10-26T20:28:51.485Z,71.76
2022-10-26T20:31:18.193Z,71.43
2022-10-26T20:33:44.793Z,71.00
2022-10-26T20:36:11.431Z,70.33
2022-10-26T20:38:39.893Z,70.09
2022-10-26T20:41:12.246Z,70.00
2022-10-26T20:43:40.418Z,69.71
2022-10-26T20:46:10.080Z,69.59
2022-10-26T20:48:38.701Z,69.97
2022-10-26T20:54:29.427Z,71.50
2022-10-26T20:57:00.234Z,71.45
2022-10-26T20:59:36.830Z,71.24
2022-10-26T21:02:04.353Z,71.49
2022-10-26T21:04:31.120Z,73.59
2022-10-26T21:06:57.700Z,72.83
2022-10-26T21:09:55.182Z,72.86
2022-10-26T21:15:36.582Z,72.37
2022-10-26T21:18:03.501Z,71.87
2022-10-26T21:20:31.009Z,70.93
2022-10-26T21:22:57.565Z,70.81
2022-10-26T21:25:26.230Z,70.34
2022-10-26T21:27:57.312Z,70.17
2022-10-26T21:56:59.816Z,74.45
2022-10-26T21:59:26.323Z,73.81
2022-10-26T22:01:52.950Z,74.80
2022-10-26T22:04:19.548Z,74.90
2022-10-26T22:09:28.762Z,75.11
2022-10-26T22:12:02.810Z,75.13
2022-10-26T22:17:16.648Z,73.91
2022-10-26T22:19:47.895Z,74.00
2022-10-26T22:22:14.430Z,73.51
2022-10-26T22:24:41.141Z,73.43
2022-10-26T22:49:39.694Z,72.35
2022-10-26T22:52:06.248Z,72.74
2022-10-26T22:54:32.816Z,72.03
2022-10-26T22:57:02.026Z,71.88
2022-10-26T22:59:28.566Z,71.32
2022-10-26T23:01:55.279Z,70.73
2022-10-26T23:04:49.790Z,70.50
2022-10-26T23:26:17.063Z,71.56
2022-10-26T23:28:44.300Z,71.31
2022-10-26T23:31:22.797Z,71.68
2022-10-26T23:33:50.390Z,71.28
2022-10-26T23:36:16.979Z,70.43
2022-10-26T23:38:43.836Z,70.39
2022-10-26T23:41:12.848Z,70.65
